Hovedside
METAR-TAF:

METAR-TAF

Lufthavner :

Rabil lufthavn

Boa Vista, Kapp Verde

breddegrad: 16-08-15N, lengdegrad: 22-53-22W, høyde over havet: 21 m

Gjeldene værobservasjon

Denne rapporten ble laget for 40 minutter siden, klokken 15:00 UTC
Vind 19 kt fra Nordøst
Temperatur 24°C
Luftfuktighet 57%
Trykk 1014 hPa
Sikt 10 km eller mer
Brutte skyer i en høyde av 1500 ft
Brutte skyer i en høyde av 20000 ft

METAR: GVBA 301500Z 05019KT 9999 BKN015 BKN200 24/15 Q1014 NOSIG

Tid: 14:40 (15:40 UTC)

Varsel

Denne rapporten ble laget for 4 timer og 40 minutter siden, klokken 11:00 UTC
Varsel gyldig fra 30. klokken 12 UTC til 01. klokken 18 UTC
Vind 18 kt fra Øst-nordøst med vindkast opp mot 28 kt
Sikt 10 km eller mer
Spredte skyer i en høyde av 1500 ft
Blir
fra 30. klokken 19 UTC til 30. klokken 21 UTC
Vind 16 kt fra Øst-nordøst

TAF: GVBA 301100Z 3012/0118 06018G28KT 9999 SCT015 BECMG 3019/3021 06016KT

Værobservasjoner og værvarsel for over 4000 flyplasser (METAR- og TAF-rapporter).

Tilgjengelige stasjoner er representert av de røde og gule prikkene på kartet.

Hold musepekeren over prikken for å se navnet på stasjonen.

Klikk så for å se værobservasjoner og -varsler.

For å forandre kartet kan du klikke på den grønne knappen med svart kryss for å zoome inn, på den grønne knappen med strek for å zoome ut, eller på de grønne pilene for å se tilstøtende kart.


METAR-TAF: